createdAt,value
2017-07-23T00:00:17.526Z,1009.97
2017-07-23T00:00:58.411Z,1009.97
2017-07-23T00:01:39.302Z,1009.96
2017-07-23T00:02:20.212Z,1009.94
2017-07-23T00:03:01.081Z,1009.9
2017-07-23T00:03:41.971Z,1009.94
2017-07-23T00:04:22.854Z,1009.94
2017-07-23T00:05:03.732Z,1009.9
2017-07-23T00:05:44.620Z,1009.92
2017-07-23T00:06:25.511Z,1009.91
2017-07-23T00:07:06.408Z,1009.89
2017-07-23T00:07:47.285Z,1009.95
2017-07-23T00:08:28.181Z,1009.93
2017-07-23T00:09:09.068Z,1009.87
2017-07-23T00:09:49.944Z,1009.9
2017-07-23T00:10:30.834Z,1009.88
2017-07-23T00:11:11.721Z,1009.88
2017-07-23T00:11:52.613Z,1009.9
2017-07-23T00:12:33.494Z,1009.87
2017-07-23T00:13:14.386Z,1009.91
2017-07-23T00:13:55.294Z,1009.89
2017-07-23T00:14:36.173Z,1009.84
2017-07-23T00:15:17.066Z,1009.84
2017-07-23T00:15:57.965Z,1009.82
2017-07-23T00:16:38.855Z,1009.8
2017-07-23T00:17:19.756Z,1009.77
2017-07-23T00:18:00.678Z,1009.78
2017-07-23T00:18:41.583Z,1009.76
2017-07-23T00:19:22.465Z,1009.73
2017-07-23T00:20:03.358Z,1009.7
2017-07-23T00:20:44.254Z,1009.7
2017-07-23T00:21:25.142Z,1009.7
2017-07-23T00:22:06.042Z,1009.68
2017-07-23T00:22:46.934Z,1009.69
2017-07-23T00:23:27.850Z,1009.64
2017-07-23T00:24:08.735Z,1009.64
2017-07-23T00:24:49.619Z,1009.66
2017-07-23T00:25:30.513Z,1009.63
2017-07-23T00:26:11.454Z,1009.62
2017-07-23T00:26:52.339Z,1009.6
2017-07-23T00:27:33.225Z,1009.61
2017-07-23T00:28:14.119Z,1009.59
2017-07-23T00:28:55.004Z,1009.59
2017-07-23T00:29:35.893Z,1009.6
2017-07-23T00:30:16.788Z,1009.55
2017-07-23T00:30:57.675Z,1009.59
2017-07-23T00:31:38.577Z,1009.58
2017-07-23T00:32:19.484Z,1009.59
2017-07-23T00:33:00.365Z,1009.58
2017-07-23T00:33:41.259Z,1009.57
2017-07-23T00:34:22.152Z,1009.56
2017-07-23T00:35:03.068Z,1009.54
2017-07-23T00:35:43.967Z,1009.58
2017-07-23T00:36:24.848Z,1009.57
2017-07-23T00:37:05.746Z,1009.55
2017-07-23T00:37:46.646Z,1009.53
2017-07-23T00:38:27.524Z,1009.5
2017-07-23T00:39:08.417Z,1009.51
2017-07-23T00:39:49.309Z,1009.52
2017-07-23T00:40:30.196Z,1009.51
2017-07-23T00:41:11.098Z,1009.57
2017-07-23T00:41:51.991Z,1009.56
2017-07-23T00:42:32.876Z,1009.53
2017-07-23T00:43:13.773Z,1009.51
2017-07-23T00:43:54.653Z,1009.49
2017-07-23T00:44:35.543Z,1009.52
2017-07-23T00:45:16.442Z,1009.54
2017-07-23T00:45:57.332Z,1009.5
2017-07-23T00:46:38.213Z,1009.5
2017-07-23T00:47:19.109Z,1009.48
2017-07-23T00:48:00.010Z,1009.49
2017-07-23T00:48:40.918Z,1009.43
2017-07-23T00:49:21.822Z,1009.5
2017-07-23T00:50:02.712Z,1009.41
2017-07-23T00:50:43.599Z,1009.42
2017-07-23T00:51:24.497Z,1009.39
2017-07-23T00:52:05.386Z,1009.43
2017-07-23T00:52:46.295Z,1009.37
2017-07-23T00:53:27.182Z,1009.37
2017-07-23T00:54:08.068Z,1009.36
2017-07-23T00:54:48.966Z,1009.36
2017-07-23T00:55:29.855Z,1009.38
2017-07-23T00:56:10.747Z,1009.36
2017-07-23T00:56:51.623Z,1009.38
2017-07-23T00:57:32.511Z,1009.38
2017-07-23T00:58:13.410Z,1009.39
2017-07-23T00:58:54.305Z,1009.39
2017-07-23T00:59:35.204Z,1009.38
2017-07-23T01:00:16.095Z,1009.4
2017-07-23T01:00:56.992Z,1009.39
2017-07-23T01:01:37.885Z,1009.38
2017-07-23T01:02:18.770Z,1009.38
2017-07-23T01:02:59.651Z,1009.35
2017-07-23T01:03:40.547Z,1009.37
2017-07-23T01:04:21.448Z,1009.32
2017-07-23T01:05:02.320Z,1009.31
2017-07-23T01:05:43.224Z,1009.31
2017-07-23T01:06:24.120Z,1009.34
2017-07-23T01:07:05.007Z,1009.28
2017-07-23T01:07:45.900Z,1009.32
2017-07-23T01:08:26.792Z,1009.33
2017-07-23T01:09:07.670Z,1009.29
2017-07-23T01:09:48.554Z,1009.33
2017-07-23T01:10:29.462Z,1009.3
2017-07-23T01:11:10.332Z,1009.31
2017-07-23T01:11:51.214Z,1009.3
2017-07-23T01:12:32.112Z,1009.29
2017-07-23T01:13:13.003Z,1009.28
2017-07-23T01:13:53.891Z,1009.27
2017-07-23T01:14:34.786Z,1009.26
2017-07-23T01:15:15.680Z,1009.28
2017-07-23T01:15:56.592Z,1009.3
2017-07-23T01:16:37.443Z,1009.29
2017-07-23T01:17:18.337Z,1009.31
2017-07-23T01:17:59.215Z,1009.33
2017-07-23T01:18:40.121Z,1009.33
2017-07-23T01:19:21.018Z,1009.34
2017-07-23T01:20:01.912Z,1009.41
2017-07-23T01:20:42.812Z,1009.38
2017-07-23T01:21:23.704Z,1009.4
2017-07-23T01:22:04.629Z,1009.39
2017-07-23T01:22:45.524Z,1009.41
2017-07-23T01:23:26.420Z,1009.44
2017-07-23T01:24:07.304Z,1009.42
2017-07-23T01:24:48.193Z,1009.41
2017-07-23T01:25:29.097Z,1009.45
2017-07-23T01:26:10.000Z,1009.44
2017-07-23T01:26:50.889Z,1009.42
2017-07-23T01:27:31.773Z,1009.41
2017-07-23T01:28:12.657Z,1009.4
2017-07-23T01:28:53.546Z,1009.36
2017-07-23T01:29:34.446Z,1009.38
2017-07-23T01:30:15.335Z,1009.38
2017-07-23T01:30:56.235Z,1009.35
2017-07-23T01:31:37.121Z,1009.34
2017-07-23T01:32:18.012Z,1009.34
2017-07-23T01:32:58.901Z,1009.31
2017-07-23T01:33:39.796Z,1009.34
2017-07-23T01:34:20.689Z,1009.26
2017-07-23T01:35:01.575Z,1009.28
2017-07-23T01:35:42.472Z,1009.31
2017-07-23T01:36:23.359Z,1009.31
2017-07-23T01:37:04.249Z,1009.29
2017-07-23T01:37:45.124Z,1009.31
2017-07-23T01:38:26.007Z,1009.35
2017-07-23T01:39:06.910Z,1009.34
2017-07-23T01:39:47.797Z,1009.39
2017-07-23T01:40:28.683Z,1009.38
2017-07-23T01:41:09.571Z,1009.4
2017-07-23T01:41:50.481Z,1009.43
2017-07-23T01:42:31.360Z,1009.42
2017-07-23T01:43:12.250Z,1009.42
2017-07-23T01:43:53.134Z,1009.45
2017-07-23T01:44:34.042Z,1009.45
2017-07-23T01:45:14.940Z,1009.49
2017-07-23T01:45:55.821Z,1009.47
2017-07-23T01:46:36.712Z,1009.46
2017-07-23T01:47:17.602Z,1009.44
2017-07-23T01:47:58.487Z,1009.44
2017-07-23T01:48:39.364Z,1009.4
2017-07-23T01:49:20.243Z,1009.4
2017-07-23T01:50:01.135Z,1009.38
2017-07-23T01:50:42.032Z,1009.43
2017-07-23T01:51:22.919Z,1009.39
2017-07-23T01:52:03.808Z,1009.39
2017-07-23T01:52:44.699Z,1009.38
2017-07-23T01:53:25.596Z,1009.37
2017-07-23T01:54:06.483Z,1009.36
2017-07-23T01:54:47.377Z,1009.36
2017-07-23T01:55:28.271Z,1009.36
2017-07-23T01:56:09.184Z,1009.36
2017-07-23T01:56:50.071Z,1009.38
2017-07-23T01:57:30.957Z,1009.36
2017-07-23T01:58:11.851Z,1009.38
2017-07-23T01:58:52.742Z,1009.36
2017-07-23T01:59:33.637Z,1009.36
2017-07-23T02:00:14.528Z,1009.35
2017-07-23T02:00:55.422Z,1009.33
2017-07-23T02:01:36.305Z,1009.39
2017-07-23T02:02:17.200Z,1009.35
2017-07-23T02:02:58.092Z,1009.38
2017-07-23T02:03:38.977Z,1009.31
2017-07-23T02:04:19.872Z,1009.3
2017-07-23T02:05:00.773Z,1009.28
2017-07-23T02:05:41.669Z,1009.27
2017-07-23T02:06:22.565Z,1009.26
2017-07-23T02:07:03.453Z,1009.21
2017-07-23T02:07:44.348Z,1009.24
2017-07-23T02:08:25.253Z,1009.21
2017-07-23T02:09:06.120Z,1009.2
2017-07-23T02:09:47.011Z,1009.15
2017-07-23T02:10:27.916Z,1009.15
2017-07-23T02:11:08.804Z,1009.2
2017-07-23T02:11:49.691Z,1009.18
2017-07-23T02:12:30.585Z,1009.17
2017-07-23T02:13:11.481Z,1009.17
2017-07-23T02:13:52.373Z,1009.16
2017-07-23T02:14:33.280Z,1009.14
2017-07-23T02:15:14.167Z,1009.15
2017-07-23T02:15:55.067Z,1009.17
2017-07-23T02:16:35.961Z,1009.17
2017-07-23T02:17:16.850Z,1009.15
2017-07-23T02:17:57.743Z,1009.17
2017-07-23T02:18:38.641Z,1009.17
2017-07-23T02:19:19.528Z,1009.15
2017-07-23T02:20:00.420Z,1009.16
2017-07-23T02:20:41.313Z,1009.14
2017-07-23T02:21:22.208Z,1009.12
2017-07-23T02:22:03.110Z,1009.16
2017-07-23T02:22:43.997Z,1009.12
2017-07-23T02:23:24.879Z,1009.11
2017-07-23T02:24:05.778Z,1009.07
2017-07-23T02:24:46.666Z,1009.13
2017-07-23T02:25:27.556Z,1009.13
2017-07-23T02:26:08.445Z,1009.15
2017-07-23T02:26:49.340Z,1009.2
2017-07-23T02:27:30.231Z,1009.17
2017-07-23T02:28:11.129Z,1009.16
2017-07-23T02:28:52.015Z,1009.18
2017-07-23T02:29:32.906Z,1009.18
2017-07-23T02:30:13.797Z,1009.18
2017-07-23T02:30:54.690Z,1009.18
2017-07-23T02:31:35.575Z,1009.18
2017-07-23T02:32:16.455Z,1009.17
2017-07-23T02:32:57.350Z,1009.16
2017-07-23T02:33:38.228Z,1009.15
2017-07-23T02:34:19.110Z,1009.16
2017-07-23T02:35:00.017Z,1009.14
2017-07-23T02:35:40.905Z,1009.19
2017-07-23T02:36:21.795Z,1009.2
2017-07-23T02:37:02.687Z,1009.2
2017-07-23T02:37:43.578Z,1009.2
2017-07-23T02:38:24.472Z,1009.23
2017-07-23T02:39:05.366Z,1009.23
2017-07-23T02:39:46.258Z,1009.26
2017-07-23T02:40:27.135Z,1009.22
2017-07-23T02:41:08.020Z,1009.2
2017-07-23T02:41:48.929Z,1009.22
2017-07-23T02:42:29.826Z,1009.17
2017-07-23T02:43:10.735Z,1009.16
2017-07-23T02:43:51.628Z,1009.07
2017-07-23T02:44:32.515Z,1009.11
2017-07-23T02:45:13.422Z,1009.11
2017-07-23T02:45:54.306Z,1009.11
2017-07-23T02:46:35.190Z,1009.12
2017-07-23T02:47:16.098Z,1009.12
2017-07-23T02:47:56.993Z,1009.12
2017-07-23T02:48:37.883Z,1009.16
2017-07-23T02:49:18.775Z,1009.11
2017-07-23T02:49:59.660Z,1009.08
2017-07-23T02:50:40.573Z,1009.11
2017-07-23T02:51:21.467Z,1009.07
2017-07-23T02:52:02.346Z,1009.08
2017-07-23T02:52:43.231Z,1009.04
2017-07-23T02:53:24.134Z,1009.03
2017-07-23T02:54:05.020Z,1009.06
2017-07-23T02:54:45.907Z,1009.06
2017-07-23T02:55:26.803Z,1009.05
2017-07-23T02:56:07.686Z,1009.05
2017-07-23T02:56:48.572Z,1009.02
2017-07-23T02:57:29.478Z,1008.99
2017-07-23T02:58:10.361Z,1009
2017-07-23T02:58:51.247Z,1009
2017-07-23T02:59:32.150Z,1008.95
2017-07-23T03:00:13.045Z,1008.98
2017-07-23T03:00:53.955Z,1008.95
2017-07-23T03:01:34.840Z,1008.96
2017-07-23T03:02:15.729Z,1008.95
2017-07-23T03:02:56.606Z,1008.95
2017-07-23T03:03:37.514Z,1008.95
2017-07-23T03:04:18.406Z,1009.02
2017-07-23T03:04:59.295Z,1009.03
2017-07-23T03:05:40.187Z,1009.05
2017-07-23T03:06:21.079Z,1009.06
2017-07-23T03:07:01.984Z,1009.09
2017-07-23T03:07:42.871Z,1009.12
2017-07-23T03:08:23.804Z,1009.1
2017-07-23T03:09:04.678Z,1009.13
2017-07-23T03:09:45.557Z,1009.06
2017-07-23T03:10:26.432Z,1009.05
2017-07-23T03:11:07.326Z,1009.06
2017-07-23T03:11:48.220Z,1009.07
2017-07-23T03:12:29.099Z,1009.07
2017-07-23T03:13:09.992Z,1009.07
2017-07-23T03:13:50.893Z,1009.07
2017-07-23T03:14:31.777Z,1009.08
2017-07-23T03:15:12.686Z,1009.06
2017-07-23T03:15:53.573Z,1009.07
2017-07-23T03:16:34.453Z,1009.09
2017-07-23T03:17:15.418Z,1009.05
2017-07-23T03:17:56.317Z,1009.07
2017-07-23T03:18:37.207Z,1009.05
2017-07-23T03:19:18.095Z,1009.04
2017-07-23T03:19:58.989Z,1009.03
2017-07-23T03:20:39.876Z,1009
2017-07-23T03:21:20.761Z,1008.96
2017-07-23T03:22:01.660Z,1008.94
2017-07-23T03:22:42.553Z,1008.93
2017-07-23T03:23:23.440Z,1008.89
2017-07-23T03:24:04.341Z,1008.89
2017-07-23T03:24:45.246Z,1008.86
2017-07-23T03:25:26.116Z,1008.85
2017-07-23T03:26:06.997Z,1008.83
2017-07-23T03:26:47.894Z,1008.86
2017-07-23T03:27:28.778Z,1008.85
2017-07-23T03:28:09.661Z,1008.91
2017-07-23T03:28:50.552Z,1008.9
2017-07-23T03:29:31.442Z,1008.87
2017-07-23T03:30:12.323Z,1008.91
2017-07-23T03:30:53.221Z,1008.94
2017-07-23T03:31:34.116Z,1008.95
2017-07-23T03:32:14.999Z,1008.98
2017-07-23T03:32:55.865Z,1008.99
2017-07-23T03:33:36.774Z,1009.06
2017-07-23T03:34:17.654Z,1009.07
2017-07-23T03:34:58.550Z,1009.12
2017-07-23T03:35:39.454Z,1009.16
2017-07-23T03:36:20.337Z,1009.17
2017-07-23T03:37:01.213Z,1009.16
2017-07-23T03:37:42.104Z,1009.22
2017-07-23T03:38:23.000Z,1009.22
2017-07-23T03:39:03.884Z,1009.19
2017-07-23T03:39:44.778Z,1009.21
2017-07-23T03:40:25.692Z,1009.2
2017-07-23T03:41:06.563Z,1009.21
2017-07-23T03:41:47.509Z,1009.21
2017-07-23T03:42:28.391Z,1009.16
2017-07-23T03:43:09.284Z,1009.18
2017-07-23T03:43:50.175Z,1009.17
2017-07-23T03:44:31.056Z,1009.19
2017-07-23T03:45:11.961Z,1009.14
2017-07-23T03:45:52.856Z,1009.17
2017-07-23T03:46:33.742Z,1009.14
2017-07-23T03:47:14.642Z,1009.19
2017-07-23T03:47:55.532Z,1009.19
2017-07-23T03:48:36.416Z,1009.14
2017-07-23T03:49:17.318Z,1009.18
2017-07-23T03:49:58.209Z,1009.14
2017-07-23T03:50:39.090Z,1009.15
2017-07-23T03:51:19.995Z,1009.12
2017-07-23T03:52:00.881Z,1009.1
2017-07-23T03:52:41.775Z,1009.12
2017-07-23T03:53:22.680Z,1009.15
2017-07-23T03:54:03.565Z,1009.1
2017-07-23T03:54:44.446Z,1009.13
2017-07-23T03:55:25.387Z,1009.16
2017-07-23T03:56:06.241Z,1009.17
2017-07-23T03:56:47.132Z,1009.22
2017-07-23T03:57:28.031Z,1009.23
2017-07-23T03:58:08.911Z,1009.22
2017-07-23T03:58:49.783Z,1009.2
2017-07-23T03:59:30.672Z,1009.22
2017-07-23T04:00:11.572Z,1009.21
2017-07-23T04:00:52.447Z,1009.22
2017-07-23T04:01:33.339Z,1009.18
2017-07-23T04:02:14.256Z,1009.22
2017-07-23T04:02:55.143Z,1009.19
2017-07-23T04:03:36.041Z,1009.18
2017-07-23T04:04:16.949Z,1009.18
2017-07-23T04:04:57.821Z,1009.14
2017-07-23T04:05:38.735Z,1009.12
2017-07-23T04:06:19.616Z,1009.09
2017-07-23T04:07:00.497Z,1009.08
2017-07-23T04:07:41.410Z,1009.07
2017-07-23T04:08:22.293Z,1009.09
2017-07-23T04:09:03.174Z,1009.07
2017-07-23T04:09:44.137Z,1009.06
2017-07-23T04:10:24.967Z,1009.08
2017-07-23T04:11:05.836Z,1009.09
2017-07-23T04:11:46.722Z,1009.05
2017-07-23T04:12:27.611Z,1009.04
2017-07-23T04:13:08.502Z,1009.03
2017-07-23T04:13:49.380Z,1009.01
2017-07-23T04:14:30.273Z,1009.03
2017-07-23T04:15:11.190Z,1009
2017-07-23T04:15:52.074Z,1009.01
2017-07-23T04:16:32.971Z,1008.94
2017-07-23T04:17:13.857Z,1008.94
2017-07-23T04:17:54.740Z,1008.98
2017-07-23T04:18:35.646Z,1008.94
2017-07-23T04:19:16.528Z,1008.96
2017-07-23T04:19:57.408Z,1008.89
2017-07-23T04:20:38.296Z,1008.93
2017-07-23T04:21:19.221Z,1008.89
2017-07-23T04:22:00.086Z,1008.89
2017-07-23T04:22:40.988Z,1008.9
2017-07-23T04:23:21.893Z,1008.91
2017-07-23T04:24:02.752Z,1008.92
2017-07-23T04:24:43.621Z,1008.88
2017-07-23T04:25:24.527Z,1008.9
2017-07-23T04:26:05.419Z,1008.87
2017-07-23T04:26:46.299Z,1008.89
2017-07-23T04:27:27.222Z,1008.89
2017-07-23T04:28:08.097Z,1008.91
2017-07-23T04:28:48.958Z,1008.9
2017-07-23T04:29:29.858Z,1008.91
2017-07-23T04:30:10.777Z,1008.9
2017-07-23T04:30:51.662Z,1008.92
2017-07-23T04:31:32.568Z,1008.94
2017-07-23T04:32:13.451Z,1008.92
2017-07-23T04:32:54.344Z,1008.93
2017-07-23T04:34:27.603Z,1008.94
2017-07-23T04:35:08.496Z,1008.98
2017-07-23T04:35:49.386Z,1008.99
2017-07-23T04:36:30.268Z,1009.03
2017-07-23T04:37:11.151Z,1009.04
2017-07-23T04:37:52.051Z,1009.02
2017-07-23T04:38:32.943Z,1009.08
2017-07-23T04:39:13.821Z,1009.03
2017-07-23T04:39:54.729Z,1009.02
2017-07-23T04:40:35.615Z,1009.05
2017-07-23T04:41:16.503Z,1009
2017-07-23T04:41:57.401Z,1008.99
2017-07-23T04:42:38.290Z,1008.95
2017-07-23T04:43:19.157Z,1008.94
2017-07-23T04:44:00.043Z,1008.95
2017-07-23T04:44:40.945Z,1008.94
2017-07-23T04:45:21.827Z,1008.94
2017-07-23T04:46:02.692Z,1008.94
2017-07-23T04:46:43.576Z,1008.94
2017-07-23T04:47:24.469Z,1008.94
2017-07-23T04:48:05.360Z,1008.9
2017-07-23T04:48:46.232Z,1008.9
2017-07-23T04:49:27.091Z,1008.91
2017-07-23T04:50:07.970Z,1008.91
2017-07-23T04:50:48.859Z,1008.86
2017-07-23T04:51:29.749Z,1008.92
2017-07-23T04:52:10.631Z,1008.93
2017-07-23T04:52:51.549Z,1008.94
2017-07-23T04:53:32.427Z,1008.94
2017-07-23T04:54:13.317Z,1008.96
2017-07-23T04:54:54.208Z,1008.97
2017-07-23T04:55:35.100Z,1008.97
2017-07-23T04:56:15.970Z,1009
2017-07-23T04:56:56.847Z,1008.98
2017-07-23T04:57:37.748Z,1008.96
2017-07-23T04:58:18.643Z,1008.97
2017-07-23T04:58:59.508Z,1008.96
2017-07-23T04:59:40.388Z,1008.98
2017-07-23T05:00:21.292Z,1008.97
2017-07-23T05:01:02.234Z,1008.94
2017-07-23T05:01:43.142Z,1008.93
2017-07-23T05:02:24.010Z,1008.96
2017-07-23T05:03:04.903Z,1008.96
2017-07-23T05:03:45.804Z,1008.98
2017-07-23T05:04:26.688Z,1008.99
2017-07-23T05:05:07.571Z,1008.95
2017-07-23T05:05:48.494Z,1008.98
2017-07-23T05:06:29.375Z,1008.97
2017-07-23T05:07:10.284Z,1008.98
2017-07-23T05:07:51.164Z,1008.93
2017-07-23T05:08:32.045Z,1008.91
2017-07-23T05:09:12.942Z,1008.87
2017-07-23T05:09:53.839Z,1008.9
2017-07-23T05:10:34.729Z,1008.86
2017-07-23T05:11:15.629Z,1008.86
2017-07-23T05:11:56.521Z,1008.84
2017-07-23T05:12:37.396Z,1008.82
2017-07-23T05:13:18.294Z,1008.81
2017-07-23T05:13:59.184Z,1008.79
2017-07-23T05:14:40.064Z,1008.79
2017-07-23T05:15:20.971Z,1008.78
2017-07-23T05:16:01.862Z,1008.77
2017-07-23T05:16:42.740Z,1008.76
2017-07-23T05:17:23.625Z,1008.75
2017-07-23T05:18:04.543Z,1008.76
2017-07-23T05:18:45.425Z,1008.74
2017-07-23T05:19:26.320Z,1008.77
2017-07-23T05:20:07.211Z,1008.76
2017-07-23T05:20:48.083Z,1008.74
2017-07-23T05:21:28.968Z,1008.75
2017-07-23T05:22:09.868Z,1008.71
2017-07-23T05:22:50.752Z,1008.76
2017-07-23T05:23:31.631Z,1008.75
2017-07-23T05:24:12.532Z,1008.72
2017-07-23T05:24:53.429Z,1008.72
2017-07-23T05:25:34.304Z,1008.7
2017-07-23T05:26:15.218Z,1008.72
2017-07-23T05:26:56.109Z,1008.7
2017-07-23T05:27:36.990Z,1008.72
2017-07-23T05:28:17.871Z,1008.68
2017-07-23T05:28:58.776Z,1008.71
2017-07-23T05:29:39.642Z,1008.69
2017-07-23T05:30:20.549Z,1008.71
2017-07-23T05:31:01.437Z,1008.69
2017-07-23T05:31:42.314Z,1008.66
2017-07-23T05:32:23.209Z,1008.67
2017-07-23T05:33:04.109Z,1008.65
2017-07-23T05:33:44.993Z,1008.67
2017-07-23T05:34:25.869Z,1008.65
2017-07-23T05:35:06.761Z,1008.58
2017-07-23T05:35:47.666Z,1008.61
2017-07-23T05:36:28.556Z,1008.59
2017-07-23T05:37:09.455Z,1008.6
2017-07-23T05:37:50.348Z,1008.6
2017-07-23T05:38:31.236Z,1008.63
2017-07-23T05:39:12.131Z,1008.6
2017-07-23T05:39:53.021Z,1008.64
2017-07-23T05:40:33.897Z,1008.6
2017-07-23T05:41:14.809Z,1008.63
2017-07-23T05:41:55.694Z,1008.61
2017-07-23T05:42:36.589Z,1008.64
2017-07-23T05:43:17.480Z,1008.63
2017-07-23T05:43:58.380Z,1008.59
2017-07-23T05:44:39.259Z,1008.6
2017-07-23T05:45:20.159Z,1008.63
2017-07-23T05:46:01.062Z,1008.61
2017-07-23T05:46:41.941Z,1008.59
2017-07-23T05:47:22.846Z,1008.57
2017-07-23T05:48:03.792Z,1008.6
2017-07-23T05:48:44.683Z,1008.57
2017-07-23T05:49:25.561Z,1008.54
2017-07-23T05:50:06.452Z,1008.54
2017-07-23T05:50:47.348Z,1008.55
2017-07-23T05:51:28.224Z,1008.53
2017-07-23T05:52:09.115Z,1008.49
2017-07-23T05:52:50.015Z,1008.49
2017-07-23T05:53:30.897Z,1008.46
2017-07-23T05:54:11.782Z,1008.46
2017-07-23T05:54:52.693Z,1008.47
2017-07-23T05:55:33.572Z,1008.46
2017-07-23T05:56:14.481Z,1008.46
2017-07-23T05:56:55.386Z,1008.53
2017-07-23T05:57:36.259Z,1008.48
2017-07-23T05:58:17.159Z,1008.5
2017-07-23T05:58:58.051Z,1008.49
2017-07-23T05:59:38.940Z,1008.49
2017-07-23T06:00:19.840Z,1008.47
2017-07-23T06:01:00.720Z,1008.47
2017-07-23T06:01:41.600Z,1008.45
2017-07-23T06:02:22.486Z,1008.43
2017-07-23T06:03:03.383Z,1008.42
2017-07-23T06:03:44.279Z,1008.42
2017-07-23T06:04:25.153Z,1008.43
2017-07-23T06:05:06.052Z,1008.45
2017-07-23T06:05:46.946Z,1008.43
2017-07-23T06:06:27.820Z,1008.43
2017-07-23T06:07:08.720Z,1008.4
2017-07-23T06:07:49.615Z,1008.39
2017-07-23T06:08:30.499Z,1008.41
2017-07-23T06:09:11.390Z,1008.4
2017-07-23T06:09:52.288Z,1008.39
2017-07-23T06:10:34.732Z,1008.42
2017-07-23T06:11:15.624Z,1008.38
2017-07-23T06:11:56.519Z,1008.4
2017-07-23T06:12:37.422Z,1008.39
2017-07-23T06:13:18.335Z,1008.44
2017-07-23T06:13:59.205Z,1008.42
2017-07-23T06:14:40.096Z,1008.45
2017-07-23T06:15:20.986Z,1008.43
2017-07-23T06:16:01.875Z,1008.5
2017-07-23T06:16:42.773Z,1008.55
2017-07-23T06:17:23.662Z,1008.6
2017-07-23T06:18:04.546Z,1008.71
2017-07-23T06:18:45.446Z,1008.82
2017-07-23T06:19:26.332Z,1009.02
2017-07-23T06:20:07.229Z,1009.23
2017-07-23T06:20:48.125Z,1009.44
2017-07-23T06:21:29.015Z,1009.57
2017-07-23T06:22:09.947Z,1009.63
2017-07-23T06:22:50.848Z,1009.63
2017-07-23T06:23:31.725Z,1009.59
2017-07-23T06:24:12.614Z,1009.56
2017-07-23T06:24:53.504Z,1009.5
2017-07-23T06:25:34.407Z,1009.37
2017-07-23T06:26:15.296Z,1009.27
2017-07-23T06:26:56.183Z,1009.21
2017-07-23T06:27:37.063Z,1009.25
2017-07-23T06:28:17.955Z,1009.35
2017-07-23T06:28:58.856Z,1009.45
2017-07-23T06:29:39.768Z,1009.53
2017-07-23T06:30:20.663Z,1009.49
2017-07-23T06:31:01.561Z,1009.51
2017-07-23T06:31:42.463Z,1009.52
2017-07-23T06:32:23.378Z,1009.52
2017-07-23T06:33:04.263Z,1009.53
2017-07-23T06:33:45.164Z,1009.53
2017-07-23T06:34:26.054Z,1009.51
2017-07-23T06:35:06.932Z,1009.56
2017-07-23T06:35:47.832Z,1009.54
2017-07-23T06:36:28.719Z,1009.53
2017-07-23T06:37:09.609Z,1009.56
2017-07-23T06:37:50.509Z,1009.58
2017-07-23T06:38:31.397Z,1009.62
2017-07-23T06:39:12.285Z,1009.58
2017-07-23T06:39:53.190Z,1009.64
2017-07-23T06:40:34.090Z,1009.66
2017-07-23T06:41:14.987Z,1009.69
2017-07-23T06:41:55.880Z,1009.73
2017-07-23T06:42:36.777Z,1009.73
2017-07-23T06:43:17.669Z,1009.71
2017-07-23T06:43:58.569Z,1009.74
2017-07-23T06:44:39.452Z,1009.74
2017-07-23T06:45:20.347Z,1009.73
2017-07-23T06:46:01.251Z,1009.72
2017-07-23T06:46:42.156Z,1009.73
2017-07-23T06:47:23.037Z,1009.72
2017-07-23T06:48:03.940Z,1009.69
2017-07-23T06:48:44.834Z,1009.76
2017-07-23T06:49:25.720Z,1009.74
2017-07-23T06:50:06.615Z,1009.75
2017-07-23T06:50:47.509Z,1009.71
2017-07-23T06:51:28.400Z,1009.61
2017-07-23T06:52:09.290Z,1009.6
2017-07-23T06:52:50.188Z,1009.63
2017-07-23T06:53:31.086Z,1009.61
2017-07-23T06:54:11.978Z,1009.63
2017-07-23T06:54:52.882Z,1009.66
2017-07-23T06:55:33.759Z,1009.65
2017-07-23T06:56:14.649Z,1009.7
2017-07-23T06:56:55.551Z,1009.72
2017-07-23T06:57:36.445Z,1009.73
2017-07-23T06:58:17.336Z,1009.73
2017-07-23T06:58:58.227Z,1009.7
2017-07-23T06:59:39.120Z,1009.68
2017-07-23T07:00:20.016Z,1009.68
2017-07-23T07:01:00.902Z,1009.62
2017-07-23T07:01:41.789Z,1009.64
2017-07-23T07:02:22.678Z,1009.63
2017-07-23T07:03:03.583Z,1009.67
2017-07-23T07:03:44.469Z,1009.63
2017-07-23T07:04:25.351Z,1009.69
2017-07-23T07:05:06.235Z,1009.69
2017-07-23T07:05:47.117Z,1009.65
2017-07-23T07:06:28.004Z,1009.66
2017-07-23T07:07:08.906Z,1009.66
2017-07-23T07:07:49.805Z,1009.66
2017-07-23T07:08:30.693Z,1009.59
2017-07-23T07:09:11.588Z,1009.55
2017-07-23T07:09:52.480Z,1009.54
2017-07-23T07:10:33.369Z,1009.43
2017-07-23T07:11:14.258Z,1009.41
2017-07-23T07:11:55.147Z,1009.32
2017-07-23T07:12:36.034Z,1009.24
2017-07-23T07:13:16.938Z,1009.17
2017-07-23T07:13:57.832Z,1009.11
2017-07-23T07:14:38.715Z,1009.06
2017-07-23T07:15:19.609Z,1009.03
2017-07-23T07:16:00.511Z,1009
2017-07-23T07:16:41.398Z,1008.98
2017-07-23T07:17:22.294Z,1008.99
2017-07-23T07:18:03.197Z,1008.96
2017-07-23T07:18:44.080Z,1008.97
2017-07-23T07:19:24.972Z,1008.99
2017-07-23T07:20:05.859Z,1009.01
2017-07-23T07:20:46.766Z,1009.02
2017-07-23T07:21:27.668Z,1009.02
2017-07-23T07:22:08.555Z,1009.01
2017-07-23T07:22:49.460Z,1009.01
2017-07-23T07:23:30.351Z,1009.01
2017-07-23T07:24:11.243Z,1008.94
2017-07-23T07:24:52.140Z,1008.91
2017-07-23T07:25:33.029Z,1008.94
2017-07-23T07:26:13.924Z,1008.9
2017-07-23T07:26:54.817Z,1008.92
2017-07-23T07:27:35.727Z,1008.92
2017-07-23T07:28:16.628Z,1008.93
2017-07-23T07:28:57.519Z,1008.97
2017-07-23T07:29:38.407Z,1008.91
2017-07-23T07:30:19.304Z,1008.88
2017-07-23T07:31:00.196Z,1008.88
2017-07-23T07:31:41.087Z,1008.88
2017-07-23T07:32:21.981Z,1008.88
2017-07-23T07:33:02.877Z,1008.87
2017-07-23T07:33:43.766Z,1008.85
2017-07-23T07:34:24.655Z,1008.82
2017-07-23T07:35:05.553Z,1008.84
2017-07-23T07:35:46.445Z,1008.82
2017-07-23T07:36:27.339Z,1008.81
2017-07-23T07:37:08.228Z,1008.85
2017-07-23T07:37:49.107Z,1008.88
2017-07-23T07:38:30.011Z,1008.86
2017-07-23T07:39:10.900Z,1008.89
2017-07-23T07:39:51.791Z,1008.89
2017-07-23T07:40:32.687Z,1008.89
2017-07-23T07:41:13.578Z,1008.87
2017-07-23T07:41:54.465Z,1008.82
2017-07-23T07:42:35.366Z,1008.79
2017-07-23T07:43:16.261Z,1008.74
2017-07-23T07:43:57.144Z,1008.69
2017-07-23T07:44:38.028Z,1008.67
2017-07-23T07:45:18.926Z,1008.66
2017-07-23T07:45:59.822Z,1008.67
2017-07-23T07:46:40.709Z,1008.71
2017-07-23T07:47:21.605Z,1008.69
2017-07-23T07:48:02.488Z,1008.67
2017-07-23T07:48:43.380Z,1008.68
2017-07-23T07:49:24.280Z,1008.68
2017-07-23T07:50:05.169Z,1008.64
2017-07-23T07:50:46.059Z,1008.65
2017-07-23T07:51:26.955Z,1008.57
2017-07-23T07:52:07.847Z,1008.56
2017-07-23T07:52:48.752Z,1008.52
2017-07-23T07:53:29.641Z,1008.47
2017-07-23T07:54:10.524Z,1008.47
2017-07-23T07:54:51.425Z,1008.43
2017-07-23T07:55:32.375Z,1008.46
2017-07-23T07:56:13.266Z,1008.43
2017-07-23T07:56:54.158Z,1008.46
2017-07-23T07:57:35.058Z,1008.45
2017-07-23T07:58:15.945Z,1008.48
2017-07-23T07:58:56.835Z,1008.52
2017-07-23T07:59:37.729Z,1008.52
2017-07-23T08:00:18.620Z,1008.54
2017-07-23T08:00:59.508Z,1008.57
2017-07-23T08:01:40.400Z,1008.56
2017-07-23T08:02:21.290Z,1008.61
2017-07-23T08:03:02.183Z,1008.58
2017-07-23T08:03:43.068Z,1008.57
2017-07-23T08:04:23.962Z,1008.63
2017-07-23T08:05:04.852Z,1008.62
2017-07-23T08:05:45.751Z,1008.63
2017-07-23T08:06:26.642Z,1008.59
2017-07-23T08:07:07.535Z,1008.65
2017-07-23T08:07:48.433Z,1008.67
2017-07-23T08:08:29.335Z,1008.67
2017-07-23T08:09:10.216Z,1008.66
2017-07-23T08:09:51.102Z,1008.65
2017-07-23T08:10:31.999Z,1008.7
2017-07-23T08:11:12.889Z,1008.69
2017-07-23T08:11:53.788Z,1008.65
2017-07-23T08:12:34.682Z,1008.65
2017-07-23T08:13:15.590Z,1008.67
2017-07-23T08:13:56.458Z,1008.68
2017-07-23T08:14:37.360Z,1008.66
2017-07-23T08:15:18.246Z,1008.67
2017-07-23T08:15:59.149Z,1008.73
2017-07-23T08:16:40.053Z,1008.8
2017-07-23T08:17:20.942Z,1008.79